|
公曆農曆對照

機場天氣預報 (TAF)

機場天氣預報 (TAF) 載述關於某個機場在預測期內預料會出現的氣象要素。

香港天文台在 19 年 01 月 22 日 19 時 00 分最新發出的香港國際機場天氣預報

TAF VHHH 221100Z 2212/2318 03010KT 7000 FEW035 TX18/2306Z TN12/2223Z TEMPO 2303/2309 32010KT 4000 HZ TEMPO 2309/2318 09005KT=

(下次更新時間:19年01月23日01時00分)

機場天氣預報電碼經解碼後:-

香港天文台發出 2019 年 01 月 22 日 12 協調世界時 至 2019 年 01 月 23 日 18 協調世界時 的機場天氣預報:
 

時間(協調世界時) 能見度 天氣狀況 雲層 雲層高度
2019 年 01 月 22 日 12 時 至 2019 年 01 月 23 日 18 時 東北偏北風 (030 o) 10 海里/小時 7 公里 無重要天氣狀況
1-2
3500 呎
2019 年 01 月 23 日 03 時 至 09 時 期間間中 西北風 (320 o) 10 海里/小時 4000 米 煙霞
1-2
3500 呎
2019 年 01 月 23 日 09 時 至 18 時 期間間中 東風 (090 o) 5 海里/小時 7 公里 無重要天氣狀況
1-2
3500 呎

時間(協調世界時) 氣溫
2019 年 01 月 23 日 06 時
最高18 oC
2019 年 01 月 22 日 23 時
最低12 oC

份: 雲層是以估計天空被雲遮蔽之總面積來評定。把天空分為八份,1 份即是八份之一的天空被雲遮蔽,2 份即是八份之二的天空被雲遮蔽,如此類推。
  0 份 = 天朗氣清,1-2 份 = 稀薄雲層,3-4 份 = 零散雲層,5-7 份 = 疏鬆雲層,8 份 = 天色陰暗。
若想進一步瞭解機場天氣預報(TAF)的編碼,請參看剖析TAF電碼的意義
若想進一步瞭解雲,請參看香港常見的雲
 
香港國際機場航空天氣報告資料 本港地區航空天氣預報
 
版權及聲明